Time,TemperatureF,DewpointF,PressureIn,WindDirection,WindDirectionDegrees,WindSpeedMPH,WindSpeedGustMPH,Humidity,HourlyPrecipIn,Conditions,Clouds,dailyrainin,SoftwareType,DateUTC
2013-08-20 00:06:00,49.8,47.0,29.99,SSW,208,0.0,1.0,89,0.00,,,0.00,weatherlink.com 1.10,2013-08-20 06:06:00,
2013-08-20 00:21:00,49.6,46.0,29.99,SSW,205,1.0,1.0,88,0.00,,,0.00,weatherlink.com 1.10,2013-08-20 06:21:00,
2013-08-20 00:36:00,49.2,46.0,29.99,SSW,209,1.0,2.0,89,0.00,,,0.00,weatherlink.com 1.10,2013-08-20 06:36:00,
2013-08-20 00:51:00,48.4,46.0,29.99,SSW,209,0.0,1.0,90,0.00,,,0.00,weatherlink.com 1.10,2013-08-20 06:51:00,
2013-08-20 01:06:00,47.8,45.0,29.98,SSW,209,0.0,1.0,91,0.00,,,0.00,weatherlink.com 1.10,2013-08-20 07:06:00,
2013-08-20 01:21:00,47.6,45.0,29.98,SSW,209,1.0,1.0,90,0.00,,,0.00,weatherlink.com 1.10,2013-08-20 07:21:00,
2013-08-20 01:36:00,47.1,44.0,29.98,SSW,208,1.0,1.0,88,0.00,,,0.00,weatherlink.com 1.10,2013-08-20 07:36:00,
2013-08-20 01:51:00,46.1,43.0,29.98,SSW,208,0.0,1.0,89,0.00,,,0.00,weatherlink.com 1.10,2013-08-20 07:51:00,
2013-08-20 02:06:00,45.3,42.0,29.98,SSW,208,0.0,1.0,89,0.00,,,0.00,weatherlink.com 1.10,2013-08-20 08:06:00,
2013-08-20 02:22:00,44.9,42.0,29.97,SSW,204,1.0,2.0,90,0.00,,,0.00,weatherlink.com 1.10,2013-08-20 08:22:00,
2013-08-20 02:36:00,44.7,42.0,29.97,SSW,204,0.0,2.0,90,0.00,,,0.00,weatherlink.com 1.10,2013-08-20 08:36:00,
2013-08-20 02:52:00,43.9,42.0,29.98,SSW,204,0.0,1.0,91,0.00,,,0.00,weatherlink.com 1.10,2013-08-20 08:52:00,
2013-08-20 03:07:00,43.4,41.0,29.98,SSW,204,0.0,1.0,91,0.00,,,0.00,weatherlink.com 1.10,2013-08-20 09:07:00,
2013-08-20 03:22:00,42.8,40.0,29.99,SSW,204,0.0,0.0,91,0.00,,,0.00,weatherlink.com 1.10,2013-08-20 09:22:00,
2013-08-20 03:37:00,42.4,40.0,29.99,SSW,204,0.0,1.0,92,0.00,,,0.00,weatherlink.com 1.10,2013-08-20 09:37:00,
2013-08-20 03:52:00,42.3,40.0,29.99,SSW,204,1.0,1.0,92,0.00,,,0.00,weatherlink.com 1.10,2013-08-20 09:52:00,
2013-08-20 04:07:00,42.4,40.0,29.98,SSW,204,0.0,2.0,92,0.00,,,0.00,weatherlink.com 1.10,2013-08-20 10:07:00,
2013-08-20 04:22:00,41.7,40.0,29.98,SSW,204,0.0,0.0,93,0.00,,,0.00,weatherlink.com 1.10,2013-08-20 10:22:00,
2013-08-20 04:37:00,41.5,40.0,29.99,SSW,204,0.0,0.0,93,0.00,,,0.00,weatherlink.com 1.10,2013-08-20 10:37:00,
2013-08-20 04:52:00,41.5,40.0,29.99,SSW,204,0.0,1.0,94,0.00,,,0.00,weatherlink.com 1.10,2013-08-20 10:52:00,
2013-08-20 05:07:00,41.7,40.0,29.99,SSW,204,1.0,1.0,94,0.00,,,0.00,weatherlink.com 1.10,2013-08-20 11:07:00,
2013-08-20 05:22:00,42.3,41.0,29.99,SSW,204,0.0,1.0,94,0.00,,,0.00,weatherlink.com 1.10,2013-08-20 11:22:00,
2013-08-20 05:37:00,42.5,41.0,29.98,SSW,204,0.0,0.0,93,0.00,,,0.00,weatherlink.com 1.10,2013-08-20 11:37:00,
2013-08-20 05:52:00,42.4,41.0,29.99,SSW,204,0.0,0.0,93,0.00,,,0.00,weatherlink.com 1.10,2013-08-20 11:52:00,
2013-08-20 06:07:00,41.8,40.0,29.98,SSW,204,0.0,1.0,94,0.00,,,0.00,weatherlink.com 1.10,2013-08-20 12:07:00,
2013-08-20 06:22:00,41.5,40.0,29.99,SSW,204,0.0,1.0,94,0.00,,,0.00,weatherlink.com 1.10,2013-08-20 12:22:00,
2013-08-20 06:37:00,41.1,40.0,29.99,SSW,204,0.0,1.0,94,0.00,,,0.00,weatherlink.com 1.10,2013-08-20 12:37:00,
2013-08-20 06:52:00,41.0,40.0,29.99,SSW,204,0.0,1.0,95,0.00,,,0.00,weatherlink.com 1.10,2013-08-20 12:52:00,
2013-08-20 07:07:00,41.3,40.0,29.99,SSW,204,0.0,1.0,95,0.00,,,0.00,weatherlink.com 1.10,2013-08-20 13:07:00,
2013-08-20 07:22:00,41.6,40.0,29.99,SSW,204,0.0,0.0,95,0.00,,,0.00,weatherlink.com 1.10,2013-08-20 13:22:00,
2013-08-20 07:37:00,43.1,42.0,29.99,SSW,204,0.0,0.0,94,0.00,,,0.00,weatherlink.com 1.10,2013-08-20 13:37:00,
2013-08-20 07:52:00,47.2,44.0,29.99,SSW,204,0.0,0.0,87,0.00,,,0.00,weatherlink.com 1.10,2013-08-20 13:52:00,
2013-08-20 08:07:00,51.7,46.0,29.98,SSW,204,0.0,0.0,80,0.00,,,0.00,weatherlink.com 1.10,2013-08-20 14:07:00,
2013-08-20 08:22:00,54.4,47.0,29.97,SSW,204,0.0,0.0,77,0.00,,,0.00,weatherlink.com 1.10,2013-08-20 14:22:00,
2013-08-20 08:37:00,58.1,49.0,29.97,SSW,204,0.0,0.0,71,0.00,,,0.00,weatherlink.com 1.10,2013-08-20 14:37:00,
2013-08-20 08:52:00,55.1,46.0,29.96,SSE,167,1.0,2.0,71,0.00,,,0.00,weatherlink.com 1.10,2013-08-20 14:52:00,
2013-08-20 09:07:00,56.5,46.0,29.95,SSE,167,1.0,4.0,67,0.00,,,0.00,weatherlink.com 1.10,2013-08-20 15:07:00,
2013-08-20 09:22:00,58.2,45.0,29.95,SSE,161,2.0,5.0,61,0.00,,,0.00,weatherlink.com 1.10,2013-08-20 15:22:00,
2013-08-20 09:37:00,59.9,47.0,29.95,South,170,1.0,4.0,62,0.00,,,0.00,weatherlink.com 1.10,2013-08-20 15:37:00,
2013-08-20 09:52:00,61.7,47.0,29.95,South,169,1.0,4.0,59,0.00,,,0.00,weatherlink.com 1.10,2013-08-20 15:52:00,
2013-08-20 10:07:00,63.5,46.0,29.94,SSE,168,1.0,7.0,54,0.00,,,0.00,weatherlink.com 1.10,2013-08-20 16:07:00,
2013-08-20 10:23:00,64.9,45.0,29.93,SSE,147,3.0,7.0,49,0.00,,,0.00,weatherlink.com 1.10,2013-08-20 16:23:00,
2013-08-20 10:38:00,66.0,47.0,29.93,SE,137,3.0,7.0,51,0.00,,,0.00,weatherlink.com 1.10,2013-08-20 16:38:00,
2013-08-20 10:53:00,67.5,47.0,29.92,SSE,165,3.0,7.0,48,0.00,,,0.00,weatherlink.com 1.10,2013-08-20 16:53:00,
2013-08-20 11:08:00,68.4,44.0,29.91,SE,136,6.0,10.0,41,0.00,,,0.00,weatherlink.com 1.10,2013-08-20 17:08:00,
2013-08-20 11:23:00,69.4,45.0,29.91,SE,144,5.0,10.0,41,0.00,,,0.00,weatherlink.com 1.10,2013-08-20 17:23:00,
2013-08-20 11:38:00,70.6,45.0,29.90,South,169,2.0,8.0,40,0.00,,,0.00,weatherlink.com 1.10,2013-08-20 17:38:00,
2013-08-20 11:53:00,71.3,45.0,29.89,South,176,2.0,9.0,39,0.00,,,0.00,weatherlink.com 1.10,2013-08-20 17:53:00,
2013-08-20 12:08:00,72.3,43.0,29.88,SE,130,7.0,9.0,35,0.00,,,0.00,weatherlink.com 1.10,2013-08-20 18:08:00,
2013-08-20 12:23:00,73.7,42.0,29.87,South,174,3.0,8.0,32,0.00,,,0.00,weatherlink.com 1.10,2013-08-20 18:23:00,
2013-08-20 12:38:00,73.6,41.0,29.87,SE,124,5.0,8.0,31,0.00,,,0.00,weatherlink.com 1.10,2013-08-20 18:38:00,
2013-08-20 12:54:00,71.7,40.0,29.88,South,186,0.0,10.0,32,0.00,,,0.00,weatherlink.com 1.10,2013-08-20 18:54:00,
2013-08-20 13:08:00,68.5,42.0,29.89,SSW,205,2.0,12.0,38,0.00,,,0.00,weatherlink.com 1.10,2013-08-20 19:08:00,
2013-08-20 13:23:00,65.7,42.0,29.89,SSW,210,1.0,8.0,42,0.00,,,0.00,weatherlink.com 1.10,2013-08-20 19:23:00,
2013-08-20 13:38:00,66.1,41.0,29.88,SSW,207,2.0,6.0,40,0.00,,,0.00,weatherlink.com 1.10,2013-08-20 19:38:00,
2013-08-20 13:53:00,67.4,41.0,29.88,SSW,209,2.0,6.0,38,0.00,,,0.00,weatherlink.com 1.10,2013-08-20 19:53:00,
2013-08-20 14:08:00,71.1,40.0,29.87,South,186,1.0,10.0,33,0.00,,,0.00,weatherlink.com 1.10,2013-08-20 20:08:00,
2013-08-20 14:23:00,71.7,42.0,29.86,SW,219,2.0,9.0,34,0.00,,,0.00,weatherlink.com 1.10,2013-08-20 20:23:00,
2013-08-20 14:38:00,74.9,40.0,29.85,SSW,205,3.0,6.0,28,0.00,,,0.00,weatherlink.com 1.10,2013-08-20 20:38:00,
2013-08-20 14:53:00,74.8,39.0,29.85,SSW,210,1.0,6.0,27,0.00,,,0.00,weatherlink.com 1.10,2013-08-20 20:53:00,
2013-08-20 15:23:00,74.9,36.0,29.84,SSE,153,3.0,6.0,24,0.00,,,0.00,weatherlink.com 1.10,2013-08-20 21:23:00,
2013-08-20 15:39:00,74.0,38.0,29.83,South,186,0.0,5.0,27,0.00,,,0.00,weatherlink.com 1.10,2013-08-20 21:39:00,
2013-08-20 15:54:00,74.8,41.0,29.82,South,183,0.0,9.0,30,0.00,,,0.00,weatherlink.com 1.10,2013-08-20 21:54:00,
2013-08-20 16:09:00,73.4,37.0,29.83,SSW,198,0.0,3.0,27,0.00,,,0.00,weatherlink.com 1.10,2013-08-20 22:09:00,
2013-08-20 16:24:00,71.8,39.0,29.83,South,172,1.0,5.0,31,0.00,,,0.00,weatherlink.com 1.10,2013-08-20 22:24:00,
2013-08-20 16:39:00,70.2,40.0,29.84,SSE,153,4.0,7.0,33,0.00,,,0.00,weatherlink.com 1.10,2013-08-20 22:39:00,
2013-08-20 17:09:00,69.6,45.0,29.84,South,174,0.0,2.0,42,0.00,,,0.00,weatherlink.com 1.10,2013-08-20 23:09:00,
2013-08-20 17:24:00,69.1,47.0,29.83,South,184,0.0,2.0,45,0.00,,,0.00,weatherlink.com 1.10,2013-08-20 23:24:00,
2013-08-20 17:39:00,69.0,39.0,29.83,SSE,167,1.0,5.0,33,0.00,,,0.00,weatherlink.com 1.10,2013-08-20 23:39:00,
2013-08-20 17:54:00,68.5,42.0,29.82,South,172,0.0,4.0,38,0.00,,,0.00,weatherlink.com 1.10,2013-08-20 23:54:00,
2013-08-20 18:09:00,67.8,42.0,29.83,South,172,2.0,5.0,39,0.00,,,0.00,weatherlink.com 1.10,2013-08-21 00:09:00,
2013-08-20 18:24:00,66.6,43.0,29.84,South,170,0.0,6.0,42,0.00,,,0.00,weatherlink.com 1.10,2013-08-21 00:24:00,
2013-08-20 18:39:00,65.5,44.0,29.84,SSW,206,0.0,4.0,46,0.00,,,0.00,weatherlink.com 1.10,2013-08-21 00:39:00,
2013-08-20 18:54:00,64.8,44.0,29.85,South,185,1.0,5.0,48,0.00,,,0.00,weatherlink.com 1.10,2013-08-21 00:54:00,
2013-08-20 19:09:00,63.7,46.0,29.85,South,187,0.0,0.0,52,0.00,,,0.00,weatherlink.com 1.10,2013-08-21 01:09:00,
2013-08-20 19:24:00,62.4,45.0,29.86,South,188,0.0,0.0,54,0.00,,,0.00,weatherlink.com 1.10,2013-08-21 01:24:00,
2013-08-20 19:40:00,61.4,46.0,29.86,South,187,0.0,0.0,57,0.00,,,0.00,weatherlink.com 1.10,2013-08-21 01:40:00,
2013-08-20 19:55:00,60.3,47.0,29.86,South,187,0.0,0.0,61,0.00,,,0.00,weatherlink.com 1.10,2013-08-21 01:55:00,
2013-08-20 20:09:00,59.7,47.0,29.87,South,187,0.0,1.0,63,0.00,,,0.00,weatherlink.com 1.10,2013-08-21 02:09:00,
2013-08-20 20:24:00,59.1,47.0,29.88,South,188,0.0,0.0,64,0.00,,,0.00,weatherlink.com 1.10,2013-08-21 02:24:00,
2013-08-20 20:39:00,58.2,46.0,29.88,South,187,0.0,0.0,65,0.00,,,0.00,weatherlink.com 1.10,2013-08-21 02:39:00,
2013-08-20 20:54:00,57.5,47.0,29.89,South,187,0.0,0.0,68,0.00,,,0.00,weatherlink.com 1.10,2013-08-21 02:54:00,
2013-08-20 21:09:00,57.1,47.0,29.90,South,187,0.0,1.0,68,0.00,,,0.00,weatherlink.com 1.10,2013-08-21 03:09:00,
2013-08-20 21:24:00,57.0,47.0,29.91,South,188,0.0,0.0,69,0.00,,,0.00,weatherlink.com 1.10,2013-08-21 03:24:00,
2013-08-20 21:39:00,56.4,48.0,29.92,South,188,0.0,1.0,73,0.00,,,0.00,weatherlink.com 1.10,2013-08-21 03:39:00,
2013-08-20 21:54:00,55.8,47.0,29.92,South,190,0.0,1.0,71,0.00,,,0.00,weatherlink.com 1.10,2013-08-21 03:54:00,
2013-08-20 22:09:00,54.9,46.0,29.92,South,190,0.0,0.0,71,0.00,,,0.00,weatherlink.com 1.10,2013-08-21 04:09:00,
2013-08-20 22:24:00,53.8,45.0,29.91,South,190,0.0,1.0,71,0.00,,,0.00,weatherlink.com 1.10,2013-08-21 04:24:00,
2013-08-20 22:39:00,53.1,45.0,29.90,South,190,0.0,1.0,73,0.00,,,0.00,weatherlink.com 1.10,2013-08-21 04:39:00,
2013-08-20 22:54:00,52.3,45.0,29.90,South,190,0.0,0.0,75,0.00,,,0.00,weatherlink.com 1.10,2013-08-21 04:54:00,
2013-08-20 23:09:00,51.7,45.0,29.89,South,190,0.0,0.0,78,0.00,,,0.00,weatherlink.com 1.10,2013-08-21 05:09:00,
2013-08-20 23:24:00,50.6,44.0,29.89,South,190,0.0,0.0,78,0.00,,,0.00,weatherlink.com 1.10,2013-08-21 05:24:00,
2013-08-20 23:39:00,49.3,44.0,29.89,South,190,0.0,0.0,81,0.00,,,0.00,weatherlink.com 1.10,2013-08-21 05:39:00,
2013-08-20 23:54:00,48.8,43.0,29.89,South,190,0.0,1.0,81,0.00,,,0.00,weatherlink.com 1.10,2013-08-21 05:54:00,